createdAt,value
2019-05-11T00:00:24.430Z,27.51
2019-05-11T00:01:00.270Z,27.55
2019-05-11T00:01:36.154Z,27.63
2019-05-11T00:02:12.025Z,27.72
2019-05-11T00:02:49.567Z,27.82
2019-05-11T00:03:25.572Z,27.90
2019-05-11T00:04:01.579Z,27.99
2019-05-11T00:04:37.780Z,28.07
2019-05-11T00:05:13.859Z,28.10
2019-05-11T00:05:49.773Z,28.17
2019-05-11T00:06:25.715Z,28.24
2019-05-11T00:07:01.814Z,28.30
2019-05-11T00:07:37.889Z,28.36
2019-05-11T00:08:13.865Z,28.44
2019-05-11T00:08:49.872Z,28.50
2019-05-11T00:09:25.959Z,28.58
2019-05-11T00:10:01.811Z,28.65
2019-05-11T00:10:39.983Z,28.71
2019-05-11T00:11:15.836Z,28.77
2019-05-11T00:11:51.692Z,28.82
2019-05-11T00:12:27.547Z,28.91
2019-05-11T00:13:04.689Z,28.99
2019-05-11T00:13:40.565Z,29.04
2019-05-11T00:14:16.547Z,29.11
2019-05-11T00:14:52.537Z,29.15
2019-05-11T00:15:28.422Z,29.21
2019-05-11T00:16:04.297Z,29.27
2019-05-11T00:16:40.205Z,29.33
2019-05-11T00:17:16.075Z,29.39
2019-05-11T00:17:52.305Z,29.40
2019-05-11T00:18:28.144Z,29.34
2019-05-11T00:19:04.504Z,29.28
2019-05-11T00:19:40.471Z,29.26
2019-05-11T00:20:16.471Z,29.20
2019-05-11T00:20:52.320Z,29.13
2019-05-11T00:21:28.160Z,29.10
2019-05-11T00:22:04.429Z,29.11
2019-05-11T00:22:40.311Z,29.07
2019-05-11T00:23:16.224Z,29.02
2019-05-11T00:23:52.217Z,28.96
2019-05-11T00:24:29.645Z,28.90
2019-05-11T00:25:05.969Z,28.87
2019-05-11T00:25:41.865Z,28.75
2019-05-11T00:26:18.273Z,28.75
2019-05-11T00:26:54.208Z,28.79
2019-05-11T00:27:30.111Z,28.76
2019-05-11T00:28:06.098Z,28.73
2019-05-11T00:28:42.120Z,28.71
2019-05-11T00:29:17.987Z,28.69
2019-05-11T00:29:53.882Z,28.67
2019-05-11T00:30:29.712Z,28.65
2019-05-11T00:31:05.585Z,28.63
2019-05-11T00:31:41.443Z,28.60
2019-05-11T00:32:17.341Z,28.59
2019-05-11T00:32:53.249Z,28.56
2019-05-11T00:33:29.068Z,28.56
2019-05-11T00:34:05.073Z,28.54
2019-05-11T00:34:40.967Z,28.55
2019-05-11T00:35:16.781Z,28.54
2019-05-11T00:35:52.718Z,28.54
2019-05-11T00:36:28.595Z,28.53
2019-05-11T00:37:04.440Z,28.54
2019-05-11T00:37:40.295Z,28.54
2019-05-11T00:38:17.620Z,28.54
2019-05-11T00:38:53.595Z,28.55
2019-05-11T00:39:29.667Z,28.56
2019-05-11T00:40:13.814Z,28.57
2019-05-11T00:40:43.248Z,28.59
2019-05-11T00:41:19.127Z,28.60
2019-05-11T00:41:56.250Z,28.62
2019-05-11T00:42:32.138Z,28.64
2019-05-11T00:43:08.052Z,28.65
2019-05-11T00:43:44.451Z,28.68
2019-05-11T00:44:20.377Z,28.69
2019-05-11T00:44:56.275Z,28.72
2019-05-11T00:45:32.256Z,28.72
2019-05-11T00:46:08.133Z,28.72
2019-05-11T00:46:44.012Z,28.75
2019-05-11T00:47:19.868Z,28.75
2019-05-11T00:47:56.080Z,28.76
2019-05-11T00:48:32.855Z,28.76
2019-05-11T00:49:08.678Z,28.79
2019-05-11T00:49:44.541Z,28.79
2019-05-11T00:50:20.383Z,28.82
2019-05-11T00:50:56.209Z,28.83
2019-05-11T00:51:32.034Z,28.84
2019-05-11T00:52:07.880Z,28.86
2019-05-11T00:52:43.728Z,28.88
2019-05-11T00:53:19.623Z,28.93
2019-05-11T00:53:55.480Z,29.00
2019-05-11T00:54:31.367Z,29.06
2019-05-11T00:55:07.341Z,29.07
2019-05-11T00:55:43.205Z,29.06
2019-05-11T00:56:19.052Z,29.08
2019-05-11T00:56:54.857Z,29.08
2019-05-11T00:57:30.714Z,29.09
2019-05-11T00:58:06.676Z,29.07
2019-05-11T00:58:42.658Z,29.09
2019-05-11T00:59:21.693Z,29.11
2019-05-11T00:59:56.124Z,29.14
2019-05-11T01:00:31.980Z,29.21
2019-05-11T01:01:08.037Z,29.40
2019-05-11T01:01:43.881Z,29.79
2019-05-11T01:02:20.791Z,29.79
2019-05-11T01:02:56.786Z,29.92
2019-05-11T01:03:32.635Z,30.21
2019-05-11T01:04:08.509Z,30.21
2019-05-11T01:04:44.392Z,30.35
2019-05-11T01:05:20.442Z,30.41
2019-05-11T01:05:56.343Z,30.41
2019-05-11T01:06:32.283Z,30.70
2019-05-11T01:07:11.600Z,30.82
2019-05-11T01:07:47.644Z,30.93
2019-05-11T01:08:23.466Z,30.93
2019-05-11T01:08:59.475Z,30.97
2019-05-11T01:09:35.443Z,31.02
2019-05-11T01:10:23.826Z,31.02
2019-05-11T01:10:49.207Z,30.94
2019-05-11T01:11:25.148Z,30.90
2019-05-11T01:12:00.991Z,30.98
2019-05-11T01:12:36.845Z,30.97
2019-05-11T01:13:12.731Z,31.08
2019-05-11T01:13:49.808Z,31.18
2019-05-11T01:14:25.634Z,31.18
2019-05-11T01:15:01.517Z,31.12
2019-05-11T01:15:37.334Z,31.09
2019-05-11T01:16:13.219Z,30.99
2019-05-11T01:16:49.101Z,30.94
2019-05-11T01:17:25.008Z,30.89
2019-05-11T01:18:00.903Z,30.86
2019-05-11T01:18:36.788Z,30.84
2019-05-11T01:19:12.633Z,30.80
2019-05-11T01:19:48.497Z,30.78
2019-05-11T01:20:24.348Z,30.76
2019-05-11T01:21:00.207Z,30.76
2019-05-11T01:21:36.560Z,30.85
2019-05-11T01:22:12.667Z,30.94
2019-05-11T01:22:48.556Z,31.20
2019-05-11T01:23:24.489Z,31.20
2019-05-11T01:24:00.453Z,31.37
2019-05-11T01:24:36.316Z,31.48
2019-05-11T01:25:12.263Z,31.57
2019-05-11T01:25:48.165Z,31.67
2019-05-11T01:26:24.222Z,31.76
2019-05-11T01:27:00.098Z,31.84
2019-05-11T01:27:36.139Z,31.91
2019-05-11T01:28:12.003Z,31.98
2019-05-11T01:28:47.886Z,32.07
2019-05-11T01:29:23.700Z,32.17
2019-05-11T01:29:59.569Z,32.21
2019-05-11T01:30:38.543Z,32.29
2019-05-11T01:31:13.089Z,32.36
2019-05-11T01:31:49.035Z,32.43
2019-05-11T01:32:25.079Z,32.52
2019-05-11T01:33:01.034Z,32.59
2019-05-11T01:33:37.055Z,32.64
2019-05-11T01:34:12.907Z,32.71
2019-05-11T01:34:48.758Z,32.76
2019-05-11T01:35:24.578Z,32.82
2019-05-11T01:36:00.418Z,32.89
2019-05-11T01:36:36.269Z,32.93
2019-05-11T01:37:12.267Z,32.99
2019-05-11T01:37:48.114Z,33.06
2019-05-11T01:38:24.009Z,33.13
2019-05-11T01:38:59.876Z,33.15
2019-05-11T01:39:35.740Z,33.18
2019-05-11T01:40:11.827Z,33.24
2019-05-11T01:40:58.161Z,33.30
2019-05-11T01:41:25.413Z,33.36
2019-05-11T01:42:01.284Z,33.39
2019-05-11T01:42:37.211Z,33.46
2019-05-11T01:43:13.046Z,33.49
2019-05-11T01:43:48.988Z,33.53
2019-05-11T01:44:24.915Z,33.55
2019-05-11T01:45:00.777Z,33.55
2019-05-11T01:45:37.024Z,33.53
2019-05-11T01:46:12.916Z,33.54
2019-05-11T01:46:48.740Z,33.59
2019-05-11T01:47:24.586Z,33.65
2019-05-11T01:48:00.470Z,33.70
2019-05-11T01:48:36.321Z,33.74
2019-05-11T01:49:12.250Z,33.78
2019-05-11T01:49:48.102Z,33.84
2019-05-11T01:50:23.959Z,33.90
2019-05-11T01:50:59.856Z,33.94
2019-05-11T01:51:35.719Z,33.99
2019-05-11T01:52:11.582Z,34.08
2019-05-11T01:52:47.394Z,34.15
2019-05-11T01:53:23.387Z,34.19
2019-05-11T01:53:59.305Z,34.25
2019-05-11T01:54:37.066Z,34.30
2019-05-11T01:55:13.171Z,34.36
2019-05-11T01:55:49.172Z,34.42
2019-05-11T01:56:25.005Z,34.48
2019-05-11T01:57:00.860Z,34.54
2019-05-11T01:57:36.746Z,34.62
2019-05-11T01:58:12.567Z,34.66
2019-05-11T01:58:48.385Z,34.68
2019-05-11T01:59:24.235Z,34.57
2019-05-11T02:00:00.111Z,34.40
2019-05-11T02:00:36.053Z,34.29
2019-05-11T02:01:11.953Z,34.17
2019-05-11T02:01:47.808Z,34.07
2019-05-11T02:02:23.648Z,33.96
2019-05-11T02:02:59.608Z,33.81
2019-05-11T02:03:35.440Z,33.68
2019-05-11T02:04:11.351Z,33.61
2019-05-11T02:04:49.130Z,33.57
2019-05-11T02:05:33.896Z,33.61
2019-05-11T02:06:09.853Z,33.69
2019-05-11T02:06:45.638Z,33.79
2019-05-11T02:07:21.496Z,33.88
2019-05-11T02:07:57.523Z,33.96
2019-05-11T02:08:33.341Z,34.02
2019-05-11T02:09:09.294Z,34.08
2019-05-11T02:09:46.997Z,34.14
2019-05-11T02:10:22.881Z,34.19
2019-05-11T02:11:13.763Z,34.16
2019-05-11T02:11:36.485Z,34.15
2019-05-11T02:12:12.336Z,34.12
2019-05-11T02:12:48.267Z,34.19
2019-05-11T02:13:24.766Z,34.28
2019-05-11T02:14:00.566Z,34.36
2019-05-11T02:14:36.540Z,34.44
2019-05-11T02:15:12.428Z,34.51
2019-05-11T02:15:48.305Z,34.58
2019-05-11T02:16:24.186Z,34.63
2019-05-11T02:17:00.015Z,34.69
2019-05-11T02:17:35.865Z,34.78
2019-05-11T02:18:11.737Z,34.81
2019-05-11T02:18:47.913Z,34.90
2019-05-11T02:19:23.772Z,34.96
2019-05-11T02:20:00.069Z,34.97
2019-05-11T02:20:35.931Z,35.03
2019-05-11T02:21:11.827Z,35.07
2019-05-11T02:21:47.730Z,35.13
2019-05-11T02:22:23.879Z,35.21
2019-05-11T02:22:59.744Z,35.29
2019-05-11T02:23:35.587Z,35.30
2019-05-11T02:24:11.476Z,35.35
2019-05-11T02:24:47.323Z,35.42
2019-05-11T02:25:23.207Z,35.45
2019-05-11T02:25:59.451Z,35.49
2019-05-11T02:26:35.295Z,35.54
2019-05-11T02:27:11.156Z,35.58
2019-05-11T02:27:47.030Z,35.58
2019-05-11T02:28:22.836Z,35.45
2019-05-11T02:28:58.688Z,35.27
2019-05-11T02:29:34.524Z,35.09
2019-05-11T02:30:10.454Z,34.92
2019-05-11T02:30:46.342Z,34.81
2019-05-11T02:31:22.368Z,34.69
2019-05-11T02:31:58.219Z,34.58
2019-05-11T02:32:35.432Z,34.45
2019-05-11T02:33:11.283Z,34.35
2019-05-11T02:33:47.223Z,34.25
2019-05-11T02:34:23.203Z,34.18
2019-05-11T02:35:01.008Z,34.10
2019-05-11T02:35:36.841Z,34.06
2019-05-11T02:36:12.684Z,34.10
2019-05-11T02:36:48.552Z,34.18
2019-05-11T02:37:24.402Z,34.29
2019-05-11T02:38:00.298Z,34.43
2019-05-11T02:38:36.356Z,34.52
2019-05-11T02:39:12.176Z,34.55
2019-05-11T02:39:48.038Z,34.54
2019-05-11T02:40:23.989Z,34.52
2019-05-11T02:40:59.827Z,34.58
2019-05-11T02:41:37.412Z,34.50
2019-05-11T02:42:13.492Z,34.47
2019-05-11T02:42:49.400Z,34.57
2019-05-11T02:43:26.031Z,34.63
2019-05-11T02:44:01.985Z,34.68
2019-05-11T02:44:37.853Z,34.69
2019-05-11T02:45:13.863Z,34.67
2019-05-11T02:45:49.832Z,34.78
2019-05-11T02:46:26.693Z,34.89
2019-05-11T02:47:02.697Z,34.96
2019-05-11T02:47:38.642Z,34.93
2019-05-11T02:48:14.501Z,34.92
2019-05-11T02:48:50.494Z,34.94
2019-05-11T02:49:28.152Z,35.00
2019-05-11T02:50:06.456Z,35.11
2019-05-11T02:50:42.454Z,35.19
2019-05-11T02:51:18.392Z,35.26
2019-05-11T02:51:54.395Z,35.34
2019-05-11T02:52:30.363Z,35.44
2019-05-11T02:53:06.389Z,35.51
2019-05-11T02:53:42.618Z,35.55
2019-05-11T02:54:18.593Z,35.62
2019-05-11T02:54:55.103Z,35.66
2019-05-11T02:55:31.359Z,35.72
2019-05-11T02:56:07.189Z,35.81
2019-05-11T02:56:43.007Z,35.85
2019-05-11T02:57:18.835Z,35.87
2019-05-11T02:57:57.283Z,35.87
2019-05-11T02:58:33.121Z,35.89
2019-05-11T02:59:09.051Z,35.94
2019-05-11T02:59:44.892Z,35.96
2019-05-11T03:00:24.127Z,35.98
2019-05-11T03:00:59.994Z,36.00
2019-05-11T03:01:38.468Z,36.04
2019-05-11T03:02:14.280Z,36.09
2019-05-11T03:02:50.147Z,36.00
2019-05-11T03:03:26.070Z,35.94
2019-05-11T03:04:03.289Z,35.86
2019-05-11T03:04:39.100Z,35.81
2019-05-11T03:05:14.978Z,35.80
2019-05-11T03:05:50.821Z,35.85
2019-05-11T03:06:26.723Z,35.87
2019-05-11T03:07:02.585Z,35.94
2019-05-11T03:07:38.433Z,35.94
2019-05-11T03:08:14.466Z,35.96
2019-05-11T03:08:50.527Z,36.03
2019-05-11T03:09:26.431Z,36.06
2019-05-11T03:10:02.268Z,36.11
2019-05-11T03:10:38.113Z,36.12
2019-05-11T03:11:13.923Z,36.15
2019-05-11T03:11:55.656Z,36.22
2019-05-11T03:12:27.613Z,36.25
2019-05-11T03:13:03.578Z,36.28
2019-05-11T03:13:39.418Z,36.29
2019-05-11T03:14:18.354Z,36.28
2019-05-11T03:14:54.209Z,36.31
2019-05-11T03:15:30.435Z,36.31
2019-05-11T03:16:06.407Z,36.28
2019-05-11T03:16:42.233Z,36.29
2019-05-11T03:17:21.839Z,36.26
2019-05-11T03:17:57.717Z,36.22
2019-05-11T03:18:33.561Z,36.08
2019-05-11T03:19:09.468Z,35.98
2019-05-11T03:19:45.300Z,35.84
2019-05-11T03:20:23.188Z,35.70
2019-05-11T03:20:59.052Z,35.63
2019-05-11T03:21:34.987Z,35.59
2019-05-11T03:22:10.851Z,35.56
2019-05-11T03:22:47.187Z,35.67
2019-05-11T03:23:23.039Z,35.67
2019-05-11T03:23:58.906Z,35.54
2019-05-11T03:24:34.741Z,35.43
2019-05-11T03:25:10.583Z,35.33
2019-05-11T03:25:46.387Z,35.27
2019-05-11T03:26:22.344Z,35.25
2019-05-11T03:26:58.302Z,35.18
2019-05-11T03:27:34.145Z,35.14
2019-05-11T03:28:10.026Z,35.14
2019-05-11T03:28:45.890Z,35.19
2019-05-11T03:29:21.752Z,35.15
2019-05-11T03:30:01.096Z,35.07
2019-05-11T03:30:36.054Z,34.96
2019-05-11T03:31:11.991Z,34.91
2019-05-11T03:31:47.874Z,34.81
2019-05-11T03:32:23.761Z,34.74
2019-05-11T03:32:59.708Z,34.70
2019-05-11T03:33:35.658Z,34.67
2019-05-11T03:34:11.570Z,34.66
2019-05-11T03:34:47.416Z,34.66
2019-05-11T03:35:23.336Z,34.70
2019-05-11T03:35:59.203Z,34.75
2019-05-11T03:36:35.026Z,34.80
2019-05-11T03:37:10.850Z,34.81
2019-05-11T03:37:46.815Z,34.78
2019-05-11T03:38:22.808Z,34.76
2019-05-11T03:38:58.618Z,34.73
2019-05-11T03:39:34.430Z,34.70
2019-05-11T03:40:10.270Z,34.66
2019-05-11T03:40:48.728Z,34.61
2019-05-11T03:41:24.895Z,34.57
2019-05-11T03:42:14.276Z,34.51
2019-05-11T03:42:38.900Z,34.49
2019-05-11T03:43:14.892Z,34.42
2019-05-11T03:43:50.724Z,34.39
2019-05-11T03:44:26.649Z,34.34
2019-05-11T03:45:02.601Z,34.29
2019-05-11T03:45:38.450Z,34.24
2019-05-11T03:46:14.315Z,34.21
2019-05-11T03:46:50.161Z,34.19
2019-05-11T03:47:26.078Z,34.14
2019-05-11T03:48:01.925Z,34.10
2019-05-11T03:48:37.838Z,34.05
2019-05-11T03:49:13.778Z,34.02
2019-05-11T03:49:49.654Z,33.99
2019-05-11T03:50:25.495Z,33.95
2019-05-11T03:51:01.354Z,33.94
2019-05-11T03:51:37.166Z,33.90
2019-05-11T03:52:13.141Z,33.91
2019-05-11T03:52:50.218Z,33.92
2019-05-11T03:53:26.053Z,33.93
2019-05-11T03:54:01.896Z,33.94
2019-05-11T03:54:37.751Z,33.97
2019-05-11T03:55:13.803Z,33.96
2019-05-11T03:55:50.521Z,33.97
2019-05-11T03:56:26.367Z,33.96
2019-05-11T03:57:02.261Z,33.93
2019-05-11T03:57:38.058Z,33.94
2019-05-11T03:58:13.913Z,33.92
2019-05-11T03:58:49.745Z,33.91
2019-05-11T03:59:25.662Z,33.94
2019-05-11T04:00:01.492Z,33.91
2019-05-11T04:00:37.323Z,33.90
2019-05-11T04:01:13.165Z,33.92
2019-05-11T04:01:49.007Z,33.93
2019-05-11T04:02:24.872Z,33.97
2019-05-11T04:03:00.733Z,33.99
2019-05-11T04:03:36.602Z,34.01
2019-05-11T04:04:16.305Z,34.12
2019-05-11T04:04:50.269Z,34.08
2019-05-11T04:05:26.097Z,34.09
2019-05-11T04:06:01.940Z,34.12
2019-05-11T04:06:37.749Z,34.15
2019-05-11T04:07:14.022Z,34.18
2019-05-11T04:07:49.888Z,34.17
2019-05-11T04:08:25.743Z,34.13
2019-05-11T04:09:01.796Z,34.07
2019-05-11T04:09:37.642Z,34.12
2019-05-11T04:10:13.632Z,34.11
2019-05-11T04:10:49.560Z,34.13
2019-05-11T04:11:25.407Z,34.19
2019-05-11T04:12:01.336Z,34.21
2019-05-11T04:12:37.209Z,34.13
2019-05-11T04:13:13.004Z,34.06
2019-05-11T04:13:48.881Z,34.01
2019-05-11T04:14:24.700Z,33.92
2019-05-11T04:15:00.560Z,33.85
2019-05-11T04:15:36.395Z,33.75
2019-05-11T04:16:12.240Z,33.71
2019-05-11T04:16:48.093Z,33.71
2019-05-11T04:17:23.911Z,33.63
2019-05-11T04:17:59.872Z,33.56
2019-05-11T04:18:35.709Z,33.55
2019-05-11T04:19:11.576Z,33.53
2019-05-11T04:19:47.556Z,33.50
2019-05-11T04:20:23.418Z,33.47
2019-05-11T04:20:59.263Z,33.48
2019-05-11T04:21:35.100Z,33.48
2019-05-11T04:22:10.959Z,33.50
2019-05-11T04:22:46.816Z,33.54
2019-05-11T04:23:22.637Z,33.54
2019-05-11T04:23:58.493Z,33.54
2019-05-11T04:24:34.310Z,33.54
2019-05-11T04:25:10.140Z,33.55
2019-05-11T04:25:45.986Z,33.52
2019-05-11T04:26:21.852Z,33.51
2019-05-11T04:26:57.688Z,33.52
2019-05-11T04:27:33.558Z,33.54
2019-05-11T04:28:09.477Z,33.60
2019-05-11T04:28:45.349Z,33.63
2019-05-11T04:29:21.195Z,33.61
2019-05-11T04:29:57.041Z,33.60
2019-05-11T04:30:32.927Z,33.63
2019-05-11T04:31:08.770Z,33.68
2019-05-11T04:31:44.592Z,33.68
2019-05-11T04:32:20.434Z,33.69
2019-05-11T04:32:56.289Z,33.69
2019-05-11T04:33:33.119Z,33.69
2019-05-11T04:34:09.396Z,33.71
2019-05-11T04:34:45.220Z,33.68
2019-05-11T04:35:21.124Z,33.69
2019-05-11T04:35:59.602Z,33.66
2019-05-11T04:36:35.450Z,33.67
2019-05-11T04:37:11.314Z,33.71
2019-05-11T04:37:47.182Z,33.73
2019-05-11T04:38:23.135Z,33.70
2019-05-11T04:38:58.982Z,33.74
2019-05-11T04:39:34.839Z,33.71
2019-05-11T04:40:10.682Z,33.82
2019-05-11T04:40:46.515Z,33.84
2019-05-11T04:41:22.341Z,33.96
2019-05-11T04:41:58.194Z,34.08
2019-05-11T04:42:51.822Z,34.20
2019-05-11T04:43:11.765Z,34.29
2019-05-11T04:43:47.615Z,34.43
2019-05-11T04:44:23.447Z,34.56
2019-05-11T04:45:01.429Z,34.65
2019-05-11T04:45:37.236Z,34.74
2019-05-11T04:46:14.607Z,34.86
2019-05-11T04:46:50.464Z,34.97
2019-05-11T04:47:26.295Z,35.10
2019-05-11T04:48:02.196Z,35.19
2019-05-11T04:48:38.014Z,35.29
2019-05-11T04:49:13.832Z,35.36
2019-05-11T04:49:49.706Z,35.36
2019-05-11T04:50:26.917Z,35.35
2019-05-11T04:51:02.755Z,35.34
2019-05-11T04:51:38.632Z,35.44
2019-05-11T04:52:14.565Z,35.48
2019-05-11T04:52:50.415Z,35.53
2019-05-11T04:53:26.253Z,35.57
2019-05-11T04:54:02.205Z,35.65
2019-05-11T04:54:38.096Z,35.70
2019-05-11T04:55:14.119Z,35.78
2019-05-11T04:55:50.012Z,35.84
2019-05-11T04:56:25.841Z,35.89
2019-05-11T04:57:01.701Z,35.93
2019-05-11T04:57:37.537Z,35.98
2019-05-11T04:58:13.515Z,36.04
2019-05-11T04:58:49.385Z,35.99
2019-05-11T04:59:25.229Z,36.04
2019-05-11T05:00:01.085Z,36.07
2019-05-11T05:00:36.923Z,36.04
2019-05-11T05:01:12.762Z,35.95
2019-05-11T05:01:48.681Z,36.02
2019-05-11T05:02:27.191Z,36.03
2019-05-11T05:03:02.311Z,36.07
2019-05-11T05:03:41.145Z,36.00
2019-05-11T05:04:15.943Z,35.99
2019-05-11T05:04:51.874Z,35.99
2019-05-11T05:05:27.736Z,36.00
2019-05-11T05:06:20.890Z,35.98
2019-05-11T05:06:41.282Z,36.05
2019-05-11T05:07:17.125Z,36.01
2019-05-11T05:07:52.959Z,36.02
2019-05-11T05:08:28.773Z,36.05
2019-05-11T05:09:06.967Z,36.08
2019-05-11T05:09:44.779Z,36.10
2019-05-11T05:10:22.338Z,36.12
2019-05-11T05:11:00.539Z,36.13
2019-05-11T05:11:36.651Z,36.14
2019-05-11T05:12:15.509Z,36.13
2019-05-11T05:12:53.322Z,36.17
2019-05-11T05:13:31.327Z,36.08
2019-05-11T05:14:08.119Z,35.98
2019-05-11T05:14:44.811Z,35.85
2019-05-11T05:15:20.745Z,35.79
2019-05-11T05:15:56.735Z,35.85
2019-05-11T05:16:33.987Z,35.92
2019-05-11T05:17:09.887Z,35.96
2019-05-11T05:17:45.727Z,35.96
2019-05-11T05:18:21.600Z,35.91
2019-05-11T05:18:59.573Z,35.91
2019-05-11T05:19:35.395Z,35.94
2019-05-11T05:20:11.291Z,35.86
2019-05-11T05:20:47.160Z,35.82
2019-05-11T05:21:23.133Z,35.73
2019-05-11T05:21:58.941Z,35.65
2019-05-11T05:22:34.733Z,35.58
2019-05-11T05:23:10.793Z,35.52
2019-05-11T05:23:46.779Z,35.44
2019-05-11T05:24:22.594Z,35.35
2019-05-11T05:24:58.478Z,35.27
2019-05-11T05:25:34.347Z,35.16
2019-05-11T05:26:10.350Z,35.12
2019-05-11T05:26:46.305Z,35.06
2019-05-11T05:27:22.144Z,34.98
2019-05-11T05:27:57.988Z,34.93
2019-05-11T05:28:33.829Z,34.88
2019-05-11T05:29:09.648Z,34.83
2019-05-11T05:29:45.532Z,34.76
2019-05-11T05:30:21.505Z,34.71
2019-05-11T05:30:57.384Z,34.67
2019-05-11T05:31:33.711Z,34.63
2019-05-11T05:32:09.674Z,34.59
2019-05-11T05:32:45.480Z,34.54
2019-05-11T05:33:21.322Z,34.51
2019-05-11T05:34:01.030Z,34.48
2019-05-11T05:34:34.839Z,34.44
2019-05-11T05:35:10.801Z,34.34
2019-05-11T05:35:46.732Z,34.33
2019-05-11T05:36:22.621Z,34.29
2019-05-11T05:36:58.461Z,34.23
2019-05-11T05:37:34.307Z,34.23
2019-05-11T05:38:10.229Z,34.19
2019-05-11T05:38:46.038Z,34.15
2019-05-11T05:39:21.977Z,34.12
2019-05-11T05:39:57.821Z,34.06
2019-05-11T05:40:33.698Z,34.04
2019-05-11T05:41:09.524Z,34.01
2019-05-11T05:41:56.688Z,33.99
2019-05-11T05:42:23.026Z,33.95
2019-05-11T05:42:58.869Z,33.93
2019-05-11T05:43:34.668Z,33.83
2019-05-11T05:44:10.598Z,33.80
2019-05-11T05:44:46.422Z,33.79
2019-05-11T05:45:22.266Z,33.74
2019-05-11T05:45:58.089Z,33.71
2019-05-11T05:46:33.915Z,33.70
2019-05-11T05:47:09.727Z,33.67
2019-05-11T05:47:45.655Z,33.66
2019-05-11T05:48:21.501Z,33.66
2019-05-11T05:48:57.323Z,33.64
2019-05-11T05:49:33.924Z,33.63
2019-05-11T05:50:09.901Z,33.60
2019-05-11T05:50:45.753Z,33.60
2019-05-11T05:51:21.585Z,33.59
2019-05-11T05:51:58.317Z,33.58
2019-05-11T05:52:35.719Z,33.57
2019-05-11T05:53:11.579Z,33.54
2019-05-11T05:53:47.388Z,33.52
2019-05-11T05:54:23.348Z,33.50
2019-05-11T05:54:59.176Z,33.48
2019-05-11T05:55:35.052Z,33.47
2019-05-11T05:56:11.929Z,33.47
2019-05-11T05:56:47.942Z,33.44
2019-05-11T05:57:23.764Z,33.44
2019-05-11T05:57:59.601Z,33.42
2019-05-11T05:58:35.516Z,33.39
2019-05-11T05:59:11.437Z,33.36
2019-05-11T05:59:47.336Z,33.34
2019-05-11T06:00:23.298Z,33.31
2019-05-11T06:00:59.097Z,33.25
2019-05-11T06:01:34.913Z,33.18
2019-05-11T06:02:11.573Z,33.15
2019-05-11T06:02:47.466Z,33.10
2019-05-11T06:03:23.314Z,33.02
2019-05-11T06:03:59.200Z,32.91
2019-05-11T06:04:35.057Z,32.73
2019-05-11T06:05:10.979Z,32.68
2019-05-11T06:05:47.435Z,32.53
2019-05-11T06:06:23.290Z,32.40
2019-05-11T06:06:59.121Z,32.16
2019-05-11T06:07:34.997Z,32.12
2019-05-11T06:08:10.850Z,32.02
2019-05-11T06:08:49.025Z,31.94
2019-05-11T06:09:24.938Z,31.87
2019-05-11T06:10:00.954Z,31.79
2019-05-11T06:10:37.219Z,31.69
2019-05-11T06:11:13.172Z,31.61
2019-05-11T06:11:49.062Z,31.55
2019-05-11T06:12:24.905Z,31.42
2019-05-11T06:13:00.760Z,31.36
2019-05-11T06:13:45.193Z,31.30
2019-05-11T06:14:14.257Z,31.24
2019-05-11T06:14:50.116Z,31.15
2019-05-11T06:15:26.095Z,31.11
2019-05-11T06:16:01.908Z,31.11
2019-05-11T06:16:37.747Z,31.08
2019-05-11T06:17:15.415Z,31.07
2019-05-11T06:17:51.248Z,31.05
2019-05-11T06:18:27.132Z,31.06
2019-05-11T06:19:03.479Z,31.06
2019-05-11T06:19:39.349Z,31.06
2019-05-11T06:20:15.329Z,31.07
2019-05-11T06:20:51.169Z,31.07
2019-05-11T06:21:27.015Z,31.07
2019-05-11T06:22:02.882Z,31.08
2019-05-11T06:22:38.726Z,31.07
2019-05-11T06:23:14.580Z,31.09
2019-05-11T06:23:50.486Z,31.11
2019-05-11T06:24:26.297Z,31.14
2019-05-11T06:25:02.150Z,31.15
2019-05-11T06:25:37.993Z,31.16
2019-05-11T06:26:13.869Z,31.15
2019-05-11T06:26:49.763Z,31.09
2019-05-11T06:27:25.662Z,31.12
2019-05-11T06:28:01.544Z,31.13
2019-05-11T06:28:37.420Z,31.12
2019-05-11T06:29:14.166Z,31.14
2019-05-11T06:29:50.001Z,31.14
2019-05-11T06:30:25.832Z,31.14
2019-05-11T06:31:01.673Z,31.15
2019-05-11T06:31:37.533Z,31.16
2019-05-11T06:32:13.363Z,31.13
2019-05-11T06:32:49.325Z,31.13
2019-05-11T06:33:25.198Z,31.13
2019-05-11T06:34:01.045Z,31.13
2019-05-11T06:34:36.907Z,31.14
2019-05-11T06:35:12.846Z,31.11
2019-05-11T06:35:48.721Z,31.07
2019-05-11T06:36:24.732Z,31.04
2019-05-11T06:37:00.597Z,31.04
2019-05-11T06:37:38.220Z,31.04
2019-05-11T06:38:14.322Z,31.03
2019-05-11T06:38:50.271Z,31.05
2019-05-11T06:39:26.092Z,31.07
2019-05-11T06:40:01.955Z,31.10
2019-05-11T06:40:37.872Z,31.11
2019-05-11T06:41:13.715Z,31.14
2019-05-11T06:41:50.579Z,31.19
2019-05-11T06:42:27.506Z,31.22
2019-05-11T06:43:03.470Z,31.24
2019-05-11T06:43:39.358Z,31.28
2019-05-11T06:44:15.267Z,31.31
2019-05-11T06:44:51.164Z,31.34
2019-05-11T06:45:27.001Z,31.35
2019-05-11T06:46:03.413Z,31.39
2019-05-11T06:46:39.263Z,31.42
2019-05-11T06:47:15.138Z,31.44
2019-05-11T06:47:53.157Z,31.48
2019-05-11T06:48:28.971Z,31.50
2019-05-11T06:49:04.826Z,31.53
2019-05-11T06:49:40.670Z,31.56
2019-05-11T06:50:16.554Z,31.62
2019-05-11T06:50:53.499Z,31.65
2019-05-11T06:51:29.336Z,31.69
2019-05-11T06:52:05.283Z,31.71
2019-05-11T06:52:41.154Z,31.76
2019-05-11T06:53:16.977Z,31.80
2019-05-11T06:53:52.917Z,31.82
2019-05-11T06:54:28.779Z,31.87
2019-05-11T06:55:04.597Z,31.90
2019-05-11T06:55:40.411Z,31.91
2019-05-11T06:56:16.316Z,31.94
2019-05-11T06:56:52.148Z,32.01
2019-05-11T06:57:27.966Z,32.06
2019-05-11T06:58:03.831Z,32.07
2019-05-11T06:58:39.671Z,32.13
2019-05-11T06:59:15.522Z,32.15
2019-05-11T06:59:51.636Z,32.20
2019-05-11T07:00:27.478Z,32.22
2019-05-11T07:01:03.301Z,32.26
2019-05-11T07:01:39.151Z,32.35
2019-05-11T07:02:14.976Z,32.41
2019-05-11T07:02:50.827Z,32.49
2019-05-11T07:03:26.701Z,32.55
2019-05-11T07:04:02.608Z,32.62
2019-05-11T07:04:38.464Z,32.63
2019-05-11T07:05:14.318Z,32.64
2019-05-11T07:05:50.148Z,32.62
2019-05-11T07:06:30.120Z,32.63
2019-05-11T07:07:03.664Z,32.66
2019-05-11T07:07:47.468Z,32.73
2019-05-11T07:08:18.417Z,32.81
2019-05-11T07:08:54.271Z,32.89
2019-05-11T07:09:30.139Z,32.98
2019-05-11T07:10:06.359Z,33.06
2019-05-11T07:10:42.250Z,33.11
2019-05-11T07:11:18.119Z,33.12
2019-05-11T07:11:54.047Z,33.11
2019-05-11T07:12:29.933Z,33.21
2019-05-11T07:13:05.751Z,33.25
2019-05-11T07:13:42.100Z,33.24
2019-05-11T07:14:20.980Z,33.20
2019-05-11T07:14:55.663Z,33.17
2019-05-11T07:15:31.529Z,33.11
2019-05-11T07:16:07.416Z,33.16
2019-05-11T07:16:43.971Z,33.13
2019-05-11T07:17:19.876Z,33.10
2019-05-11T07:17:55.847Z,33.13
2019-05-11T07:18:31.881Z,33.14
2019-05-11T07:19:07.722Z,33.22
2019-05-11T07:19:47.193Z,33.24
2019-05-11T07:20:21.200Z,33.24
2019-05-11T07:20:57.052Z,33.19
2019-05-11T07:21:32.871Z,33.12
2019-05-11T07:22:08.692Z,33.08
2019-05-11T07:22:44.577Z,33.00
2019-05-11T07:23:22.832Z,32.97
2019-05-11T07:23:58.777Z,32.97
2019-05-11T07:24:34.590Z,32.97
2019-05-11T07:25:10.467Z,32.94
2019-05-11T07:25:46.293Z,32.91
2019-05-11T07:26:22.138Z,32.81
2019-05-11T07:26:58.131Z,32.80
2019-05-11T07:27:33.993Z,32.74
2019-05-11T07:28:09.827Z,32.68
2019-05-11T07:28:45.704Z,32.69
2019-05-11T07:29:21.658Z,32.70
2019-05-11T07:29:57.567Z,32.70
2019-05-11T07:30:33.537Z,32.68
2019-05-11T07:31:09.378Z,32.69
2019-05-11T07:31:45.347Z,32.70
2019-05-11T07:32:25.774Z,32.72
2019-05-11T07:33:00.984Z,32.72
2019-05-11T07:33:37.988Z,32.74
2019-05-11T07:34:13.959Z,32.77
2019-05-11T07:34:49.823Z,32.78
2019-05-11T07:35:27.845Z,32.79
2019-05-11T07:36:03.353Z,32.87
2019-05-11T07:36:39.168Z,32.93
2019-05-11T07:37:18.401Z,32.89
2019-05-11T07:37:53.961Z,32.85
2019-05-11T07:38:31.341Z,32.89
2019-05-11T07:39:08.454Z,32.89
2019-05-11T07:39:44.366Z,32.91
2019-05-11T07:40:20.265Z,32.93
2019-05-11T07:40:58.263Z,32.97
2019-05-11T07:41:34.264Z,32.96
2019-05-11T07:42:10.222Z,32.98
2019-05-11T07:42:48.376Z,33.00
2019-05-11T07:43:23.850Z,33.00
2019-05-11T07:43:59.852Z,32.96
2019-05-11T07:44:38.699Z,32.93
2019-05-11T07:45:13.436Z,32.95